Anza Borrego Desert Research Center, California Weather observations

Data are for 10 minute period ending at time listed.
 Day   Time   Solar   Ave.   Ave.  Ave.  Vector  Max.   Baro.   Total    
  of    of     Rad.   Air    Rel.  Wind   Wind   Wind  Press.  Precip.   
Year   Day            Temp.  Hum.  Speed  Dir.   Gust                    
2014   (PST)  Kw/m2    F      %     mph   deg.    mph    mb.     in.     
-------------------------------------------------------------------------
 264   10:50   0.84   93.5    15    3.6    29     6.8   502.3    0.00 
 264   11:00   0.85   93.8    15    3.9   108     8.9   502.3    0.00 
 264   11:10   0.86   94.8    14    3.0    48     5.9   502.3    0.00 
 264   11:20   0.86   94.4    14    6.5    93     9.7   502.3    0.00 
 264   11:30   0.87   94.0    14    3.5   109     7.3   502.3    0.00 
 264   11:40   0.87   94.7    14    3.4    95     8.8   502.3    0.00 
 264   11:50   0.87   95.0    14    4.7    92    10.2   502.3    0.00 
 264   12:00   0.87   95.1    14    5.0    42     9.6   502.3    0.00 
 264   12:10   0.86   95.3    13    3.7    40     9.4   502.3    0.00 
 264   12:20   0.86   95.9    13    4.4    27     9.1   502.3    0.00 
 264   12:30   0.85   96.4    13    7.2   103    11.9   502.3    0.00 
 264   12:40   0.81   95.7    14    5.7    88     9.6   502.3    0.00 
 264   12:50   0.83   96.3    13    4.8   108     8.9   502.3    0.00 
 264   13:00   0.82   96.5    13    2.8    73    10.7   502.5    0.00 
 264   13:10   0.80   97.2    12    6.1   129    10.2   964.1    0.00 
 264   13:20   0.79   97.4    11    6.9    95    12.3   979.4    0.00 
 264   13:30   0.77   98.1    10    5.5   112    12.2   979.4    0.00 
 264   13:40   0.75   97.8    10    6.6   107    11.8   979.4    0.00 
 264   13:50   0.73   98.5    10    2.2   119     6.1   979.2    0.00 
 264   14:00   0.71   98.9    10    5.3    71    10.2   979.1    0.00 
 264   14:10   0.68   98.2    10    6.3    99    12.3   979.0    0.00 
 264   14:20   0.65   98.5    10    4.0    95     7.6   979.0    0.00 
 264   14:30   0.63   99.2    10    4.4   109     8.6   978.9    0.00 
 264   14:40   0.60   98.9     9    5.9   129    12.7   978.8    0.00 
 264   14:50   0.57   98.6     9    6.4   160    11.5   978.7    0.00 
 264   15:00   0.54   99.5     9    2.0   239     5.5   978.6    0.00 
 264   15:10   0.51   99.8     9    2.3    67     9.6   978.6    0.00 
 264   15:20   0.47   98.6     9    7.0   108    11.2   978.5    0.00 
 264   15:30   0.44   98.3     9    6.3   116     9.9   978.4    0.00 
 264   15:40   0.41   98.4     9    3.9   121     8.8   978.4    0.00 
 264   15:50   0.37   98.9     9    3.5   192     6.4   978.4    0.00 
 264   16:00   0.34   99.2     9    2.9   124     6.9   978.4    0.00 
 264   16:10   0.30   98.3    10    4.6   143     7.8   978.3    0.00 
 264   16:20   0.26   98.6    10    6.1   143    12.0   978.3    0.00 
 264   16:30   0.23   97.8    10    4.8   127     8.9   978.1    0.00 
 264   16:40   0.19   98.7    10    1.6    98     5.7   976.9    0.00 
 264   16:50   0.07   97.5    10    5.5   130     8.7   945.6    0.00 
 264   17:00   0.01   95.2    11    4.9   108     7.9   502.3    0.00 
 264   17:10   0.01   94.6    12    7.4   111    11.6   502.3    0.00 
 264   17:20   0.01   93.9    14    9.2    99    12.6   502.2    0.00 
 264   17:30   0.01   93.5    15    5.5   132     8.7   502.1    0.00 
 264   17:40   0.00   92.8    18    5.7   153     9.9   502.1    0.00 
 264   17:50   0.00   92.4    18    5.7   140    10.1   502.1    0.00 
 264   18:00   0.00   92.0    19    4.0   122     6.7   502.1    0.00 
 264   18:10   0.00   90.7    20    2.4   186     5.5   502.1    0.00 
 264   18:20   0.00   90.1    22    5.9   342     9.1   502.1    0.00 
 264   18:30   0.00   89.1    19    6.2    18     9.1   502.1    0.00 
 264   18:40   0.00   88.6    20    4.7   341     7.2   502.0    0.00 
 264   18:50   0.00   89.4    23    3.6   346     5.3   502.0    0.00 
 264   19:00   0.00   89.0    24    4.1   346    10.4   502.0    0.00 
 264   19:10   0.00   89.2    27    7.1   309     9.9   502.0    0.00 
 264   19:20   0.00   89.2    27    7.0   313    11.1   502.0    0.00 
 264   19:30   0.00   88.4    26    5.3   292    10.6   502.0    0.00 
 264   19:40   0.00   85.7    26    3.9   268     5.8   502.0    0.00 
 264   19:50   0.00   85.1    27    3.5   243     7.1   502.0    0.00 
 264   20:00   0.00   86.3    27    4.5   246    10.1   502.0    0.00 
 264   20:10   0.00   85.5    27    3.9   205     6.1   502.0    0.00 
 264   20:20   0.00   84.0    27    1.8   250     4.4   502.0    0.00 
 264   20:30   0.00   83.4    28    1.2   210     3.1   502.0    0.00 
 264   20:40   0.00   83.4    29    1.5   134     4.2   502.0    0.00 
 264   20:50   0.00   82.9    30    3.1   116     4.5   502.0    0.00 
 264   21:00   0.00   82.6    31    2.8   180     4.3   502.0    0.00 
 264   21:10   0.00   81.0    32    3.4   229     4.7   502.0    0.00 
 264   21:20   0.00   82.3    31    4.1   212     7.7   502.0    0.00 
 264   21:30   0.00   82.4    31    2.7   219     4.7   502.0    0.00 
 264   21:40   0.00   79.2    32    4.4   243     5.9   502.0    0.00 
 264   21:50   0.00   77.8    33    4.1   244     5.3   501.9    0.00 
 264   22:00   0.00   79.6    30    3.1   283     4.7   501.9    0.00 
 264   22:10   0.00   80.9    31    4.6   346     6.3   501.9    0.00 
 264   22:20   0.00   79.7    33    3.1   359     4.1   501.9    0.00 
 264   22:30   0.00   79.2    34    3.1   320     4.0   501.9    0.00 
 264   22:40   0.00   77.8    35    3.6   281     5.2   501.8    0.00 
 264   22:50   0.00   76.5    36    4.0   215     5.0   501.8    0.00 
 264   23:00   0.00   76.4    36    6.0   252     8.3   501.8    0.00 
 264   23:10   0.00   77.6    35    6.2   244     7.9   501.8    0.00 
 264   23:20   0.00   78.3    34    4.1   235     6.5   501.8    0.00 
 264   23:30   0.00   77.7    34    4.0   232     6.0   501.8    0.00 
 264   23:40   0.00   78.0    33    2.8   222     5.0   501.8    0.00 
 264   23:50   0.00   77.8    32    2.9   207     4.2   501.8    0.00 
 265    0:00   0.00   78.1    32    3.8   223     5.1   501.8    0.00 
 265    0:10   0.00   78.9    31    2.8   207     4.6   501.8    0.00 
 265    0:20   0.00   77.9    32    3.3   212     4.7   501.8    0.00 
 265    0:30   0.00   77.5    33    3.6   234     5.3   501.8    0.00 
 265    0:40   0.00   78.8    32    2.4   233     4.6   501.8    0.00 
 265    0:50   0.00   77.8    32    2.1   257     5.3   501.8    0.00 
 265    1:00   0.00   78.2    33    4.6   332     7.0   501.8    0.00 
 265    1:10   0.00   77.5    36    3.6   354     5.1   501.8    0.00 
 265    1:20   0.00   76.9    36    1.5    91     3.9   501.8    0.00 
 265    1:30   0.00   75.9    37    2.3   222     3.8   501.8    0.00 
 265    1:40   0.00   75.1    38    4.2   233     5.5   501.8    0.00 
 265    1:50   0.00   74.6    38    3.5   228     4.7   501.8    0.00 
 265    2:00   0.00   73.3    38    4.1   225     5.4   501.8    0.00 
 265    2:10   0.00   74.3    37    3.9   246     5.4   501.8    0.00 
 265    2:20   0.00   73.3    37    2.6   194     3.4   501.8    0.00 
 265    2:30   0.00   73.8    36    1.8   197     2.9   501.8    0.00 
 265    2:40   0.00   74.2    35    2.0   208     3.1   501.8    0.00 
 265    2:50   0.00   75.1    34    3.1   216     4.4   501.8    0.00 
 265    3:00   0.00   75.4    34    3.5   205     4.7   501.8    0.00 
 265    3:10   0.00   73.1    36    2.3   209     3.9   501.8    0.00 
 265    3:20   0.00   72.6    36    2.0   245     3.4   501.8    0.00 
 265    3:30   0.00   71.7    37    2.5   276     3.4   501.8    0.00 
 265    3:40   0.00   72.2    36    2.2   227     3.9   501.8    0.00 
 265    3:50   0.00   73.3    35    4.3   179     5.8   501.8    0.00 
 265    4:00   0.00   75.8    34    5.2   200     6.0   501.8    0.00 
 265    4:10   0.00   75.3    34    3.0   310     6.3   501.8    0.00 
 265    4:20   0.00   74.5    35    0.6    36     2.0   501.8    0.00 
 265    4:30   0.00   75.3    35    1.4   309     2.7   501.8    0.00 
 265    4:40   0.00   73.3    37    1.5   268     3.1   501.8    0.00 
 265    4:50   0.00   73.4    38    0.2   257     1.4   501.8    0.00 
 265    5:00   0.00   74.3    37    1.4   249     1.9   501.8    0.00 
 265    5:10   0.00   72.5    39    3.6   255     4.9   501.8    0.00 
 265    5:20   0.00   72.2    39    4.2   256     5.9   501.8    0.00 
 265    5:30   0.00   71.3    40    3.2   240     7.1   501.8    0.00 
 265    5:40   0.00   71.0    40    2.7   270     4.2   501.8    0.00 
 265    5:50   0.01   73.7    37    1.5   254     3.5   501.8    0.00 
 265    6:00   0.03   75.0    36    2.3   213     5.4   501.8    0.00 
 265    6:10   0.06   77.9    33    3.7   285     5.6   501.8    0.00 
 265    6:20   0.09   79.2    32    1.5   261     3.8   501.8    0.00 
 265    6:30   0.11   81.2    30    1.4   264     3.2   501.8    0.00 
 265    6:40   0.15   84.4    28    1.4   172     3.5   501.8    0.00 
 265    6:50   0.18   86.6    26    0.6   161     2.6   501.8    0.00 
 265    7:00   0.22   86.5    26    1.9   147     4.9   501.8    0.00 
 265    7:10   0.25   87.4    25    2.3   166     7.0   501.9    0.00 
 265    7:20   0.29   89.9    23    2.2   162     7.5   502.0    0.00 
 265    7:30   0.32   89.0    24    2.4    78     4.7   502.0    0.00 
 265    7:40   0.36   87.7    25    2.8    66     4.2   502.0    0.00 
 265    7:50   0.39   88.2    25    3.7    82     6.1   502.0    0.00 
 265    8:00   0.43   88.2    25    4.1    81     5.9   502.0    0.00 
 265    8:10   0.46   89.7    23    3.6   135     7.2   502.0    0.00 
 265    8:20   0.49   88.7    25    5.4    68     7.2   502.0    0.00 
 265    8:30   0.53   88.9    24    5.0   105     8.3   502.1    0.00 
 265    8:40   0.56   88.6    24    5.8   132     8.1   502.1    0.00 
 265    8:50   0.59   89.0    24    4.9   117     7.2   502.1    0.00 
 265    9:00   0.62   89.0    24    5.1   136     8.1   502.1    0.00 
 265    9:10   0.64   89.3    24    4.5   102     7.5   502.1    0.00 
 265    9:20   0.67   90.2    23    3.7    95     6.3   502.1    0.00 
 265    9:30   0.70   90.9    23    4.0    76     6.7   502.1    0.00 
 265    9:40   0.72   91.8    22    3.1    56     6.3   502.1    0.00 
 265    9:50   0.74   92.3    21    3.2   111     7.2   502.2    0.00 
 265   10:00   0.76   92.9    21    2.8    72     6.1   502.3    0.00 
 265   10:10   0.78   93.1    21    3.4    60     6.6   502.3    0.00 
 265   10:20   0.80   93.9    20    2.9    73     7.4   502.3    0.00 
 265   10:30   0.81   93.8    20    5.4    86     9.1   502.3    0.00 
 265   10:40   0.82   93.7    20    4.2   108     9.9   502.3    0.00 

Return to Anza Borrego Desert Research Center graphs page.


Western Regional Climate Center,wrcc@dri.edu